createdAt,value
2023-02-12T00:00:03.655Z,8.21
2023-02-12T00:02:31.329Z,8.21
2023-02-12T00:04:58.988Z,8.17
2023-02-12T00:07:30.562Z,8.19
2023-02-12T00:09:58.024Z,8.21
2023-02-12T00:12:25.465Z,8.18
2023-02-12T00:14:52.887Z,8.20
2023-02-12T00:17:20.359Z,8.21
2023-02-12T00:19:48.345Z,8.18
2023-02-12T00:22:17.146Z,8.23
2023-02-12T00:24:44.711Z,8.26
2023-02-12T00:27:12.297Z,8.24
2023-02-12T00:29:39.814Z,8.22
2023-02-12T00:32:07.379Z,8.18
2023-02-12T00:34:34.838Z,8.20
2023-02-12T00:37:02.300Z,8.22
2023-02-12T00:39:29.774Z,8.21
2023-02-12T00:41:57.175Z,8.17
2023-02-12T00:44:24.609Z,8.20
2023-02-12T00:46:52.073Z,8.20
2023-02-12T00:49:20.433Z,8.17
2023-02-12T00:51:47.861Z,8.18
2023-02-12T00:54:15.575Z,8.18
2023-02-12T00:56:43.978Z,8.16
2023-02-12T00:59:11.500Z,8.17
2023-02-12T01:01:39.088Z,8.19
2023-02-12T01:04:06.512Z,8.18
2023-02-12T01:06:33.920Z,8.17
2023-02-12T01:09:01.940Z,8.14
2023-02-12T01:11:29.408Z,8.16
2023-02-12T01:13:56.903Z,8.15
2023-02-12T01:16:25.459Z,8.12
2023-02-12T01:18:56.100Z,8.11
2023-02-12T01:21:30.987Z,8.12
2023-02-12T01:23:59.022Z,8.12
2023-02-12T01:26:27.121Z,8.15
2023-02-12T01:28:55.652Z,8.09
2023-02-12T01:31:24.622Z,8.06
2023-02-12T01:33:54.379Z,8.11
2023-02-12T01:36:22.119Z,8.13
2023-02-12T01:38:50.012Z,8.13
2023-02-12T01:41:25.063Z,8.13
2023-02-12T01:44:07.578Z,8.06
2023-02-12T01:46:35.137Z,8.01
2023-02-12T01:49:04.082Z,8.02
2023-02-12T01:51:32.538Z,8.03
2023-02-12T01:54:03.759Z,8.01
2023-02-12T01:56:32.145Z,7.99
2023-02-12T01:58:59.687Z,8.02
2023-02-12T02:01:29.074Z,7.94
2023-02-12T02:04:01.102Z,7.94
2023-02-12T02:06:33.715Z,7.91
2023-02-12T02:09:01.934Z,7.93
2023-02-12T02:12:01.536Z,7.90
2023-02-12T02:14:35.159Z,7.90
2023-02-12T02:17:11.307Z,7.92
2023-02-12T02:19:44.570Z,7.94
2023-02-12T02:22:17.734Z,7.95
2023-02-12T02:25:08.204Z,7.93
2023-02-12T02:27:59.725Z,7.94
2023-02-12T02:30:45.366Z,7.91
2023-02-12T02:33:35.370Z,7.88
2023-02-12T02:36:17.857Z,7.87
2023-02-12T02:38:53.473Z,7.87
2023-02-12T02:41:26.270Z,7.82
2023-02-12T02:43:53.929Z,7.83
2023-02-12T02:46:28.844Z,7.80
2023-02-12T02:49:03.793Z,7.92
2023-02-12T02:51:37.286Z,7.92
2023-02-12T02:54:14.602Z,7.95
2023-02-12T02:56:43.975Z,7.98
2023-02-12T02:59:14.080Z,7.97
2023-02-12T03:02:02.662Z,7.95
2023-02-12T03:04:36.276Z,7.85
2023-02-12T03:07:09.594Z,7.92
2023-02-12T03:09:42.830Z,7.90
2023-02-12T03:12:13.762Z,7.99
2023-02-12T03:14:46.121Z,8.05
2023-02-12T03:17:20.671Z,8.03
2023-02-12T03:19:53.289Z,8.04
2023-02-12T03:22:24.616Z,8.02
2023-02-12T03:24:52.040Z,7.95
2023-02-12T03:27:33.574Z,7.88
2023-02-12T03:30:01.713Z,7.82
2023-02-12T03:32:29.102Z,7.81
2023-02-12T03:35:15.368Z,7.86
2023-02-12T03:37:47.536Z,7.82
2023-02-12T03:40:19.315Z,7.88
2023-02-12T03:43:01.030Z,7.89
2023-02-12T03:45:47.408Z,7.93
2023-02-12T03:48:25.486Z,7.96
2023-02-12T03:50:58.097Z,7.96
2023-02-12T03:53:26.929Z,7.93
2023-02-12T03:55:58.237Z,7.92
2023-02-12T03:58:26.450Z,7.94
2023-02-12T04:00:54.122Z,7.94
2023-02-12T04:03:22.264Z,7.96
2023-02-12T04:05:49.637Z,7.96
2023-02-12T04:08:17.220Z,7.90
2023-02-12T04:10:44.760Z,7.94
2023-02-12T04:13:12.202Z,7.96
2023-02-12T04:16:01.956Z,7.91
2023-02-12T04:18:37.443Z,7.91
2023-02-12T04:21:13.299Z,7.84
2023-02-12T04:23:59.462Z,7.80
2023-02-12T04:26:26.937Z,7.82
2023-02-12T04:29:17.872Z,7.80
2023-02-12T04:31:48.419Z,7.79
2023-02-12T04:34:15.927Z,7.73
2023-02-12T04:36:46.913Z,7.74
2023-02-12T04:39:17.996Z,7.78
2023-02-12T04:41:45.508Z,7.73
2023-02-12T04:44:17.018Z,7.86
2023-02-12T04:46:44.519Z,7.88
2023-02-12T04:49:15.219Z,7.88
2023-02-12T04:51:42.644Z,7.85
2023-02-12T04:54:10.165Z,7.83
2023-02-12T04:56:37.618Z,7.83
2023-02-12T04:59:05.709Z,7.90
2023-02-12T05:01:34.931Z,7.85
2023-02-12T05:04:02.858Z,7.92
2023-02-12T05:06:31.332Z,7.93
2023-02-12T05:08:58.811Z,7.95
2023-02-12T05:11:26.413Z,7.91
2023-02-12T05:13:54.401Z,7.93
2023-02-12T05:16:22.747Z,7.92
2023-02-12T05:18:50.547Z,7.91
2023-02-12T05:21:18.010Z,7.94
2023-02-12T05:23:45.436Z,7.94
2023-02-12T05:26:16.775Z,7.93
2023-02-12T05:28:44.353Z,7.92
2023-02-12T05:31:14.136Z,7.88
2023-02-12T05:33:45.143Z,7.91
2023-02-12T05:36:14.021Z,7.84
2023-02-12T05:38:41.764Z,7.90
2023-02-12T05:41:11.212Z,7.87
2023-02-12T05:43:38.807Z,7.91
2023-02-12T05:46:07.675Z,7.95
2023-02-12T05:48:35.715Z,7.89
2023-02-12T05:51:07.150Z,7.86
2023-02-12T05:53:34.618Z,7.88
2023-02-12T05:56:08.029Z,7.92
2023-02-12T05:58:35.530Z,7.95
2023-02-12T06:01:02.958Z,7.93
2023-02-12T06:03:30.387Z,7.96
2023-02-12T06:05:58.092Z,7.99
2023-02-12T06:08:25.586Z,7.99
2023-02-12T06:10:53.085Z,7.98
2023-02-12T06:13:20.604Z,7.97
2023-02-12T06:15:48.198Z,7.95
2023-02-12T06:18:15.705Z,7.94
2023-02-12T06:20:43.103Z,7.76
2023-02-12T06:23:10.512Z,7.73
2023-02-12T06:25:37.912Z,7.75
2023-02-12T06:28:05.933Z,7.73
2023-02-12T06:30:35.017Z,7.71
2023-02-12T06:33:02.498Z,7.71
2023-02-12T06:35:29.920Z,7.74
2023-02-12T06:37:57.661Z,7.78
2023-02-12T06:40:25.090Z,7.79
2023-02-12T06:42:52.537Z,7.77
2023-02-12T06:45:19.973Z,7.72
2023-02-12T06:47:47.404Z,7.71
2023-02-12T06:50:14.833Z,7.67
2023-02-12T06:52:42.293Z,7.66
2023-02-12T06:55:09.835Z,7.66
2023-02-12T06:57:37.268Z,7.62
2023-02-12T07:00:05.030Z,7.57
2023-02-12T07:02:32.500Z,7.61
2023-02-12T07:04:59.887Z,7.62
2023-02-12T07:07:27.290Z,7.56
2023-02-12T07:09:54.745Z,7.53
2023-02-12T07:12:22.216Z,7.51
2023-02-12T07:14:49.669Z,7.56
2023-02-12T07:17:17.095Z,7.54
2023-02-12T07:19:44.477Z,7.49
2023-02-12T07:22:11.934Z,7.58
2023-02-12T07:24:39.657Z,7.53
2023-02-12T07:27:07.131Z,7.53
2023-02-12T07:29:34.671Z,7.58
2023-02-12T07:32:02.204Z,7.65
2023-02-12T07:34:29.730Z,7.68
2023-02-12T07:36:57.150Z,7.75
2023-02-12T07:39:24.662Z,7.73
2023-02-12T07:41:52.128Z,7.73
2023-02-12T07:44:20.115Z,7.71
2023-02-12T07:46:49.141Z,7.72
2023-02-12T07:49:17.693Z,7.76
2023-02-12T07:51:45.237Z,7.81
2023-02-12T07:54:13.547Z,7.91
2023-02-12T07:56:41.563Z,7.96
2023-02-12T07:59:13.059Z,7.94
2023-02-12T08:01:41.934Z,7.87
2023-02-12T08:04:16.891Z,7.85
2023-02-12T08:06:48.485Z,7.85
2023-02-12T08:09:17.857Z,7.79
2023-02-12T08:11:45.664Z,7.79
2023-02-12T08:14:14.382Z,7.78
2023-02-12T08:16:42.571Z,7.73
2023-02-12T08:19:19.448Z,7.54
2023-02-12T08:21:50.074Z,7.49
2023-02-12T08:24:17.566Z,7.59
2023-02-12T08:26:45.517Z,7.60
2023-02-12T08:29:14.365Z,7.56
2023-02-12T08:31:45.547Z,7.59
2023-02-12T08:34:18.026Z,7.66
2023-02-12T08:36:45.968Z,7.56
2023-02-12T08:39:13.845Z,7.58
2023-02-12T08:41:42.246Z,7.60
2023-02-12T08:44:10.084Z,7.65
2023-02-12T08:46:39.423Z,7.67
2023-02-12T08:49:09.477Z,7.65
2023-02-12T08:51:37.472Z,7.66
2023-02-12T08:54:05.949Z,7.59
2023-02-12T08:56:34.875Z,7.57
2023-02-12T08:59:04.019Z,7.64
2023-02-12T09:01:33.032Z,7.76
2023-02-12T09:04:00.926Z,7.74
2023-02-12T09:06:29.203Z,7.79
2023-02-12T09:08:56.644Z,7.81
2023-02-12T09:11:30.358Z,7.85
2023-02-12T09:14:02.219Z,7.90
2023-02-12T09:16:30.355Z,7.98
2023-02-12T09:18:58.014Z,7.99
2023-02-12T09:21:25.593Z,8.14
2023-02-12T09:23:53.212Z,8.10
2023-02-12T09:26:22.028Z,8.15
2023-02-12T09:28:50.568Z,8.18
2023-02-12T09:31:20.983Z,8.24
2023-02-12T09:33:51.697Z,8.18
2023-02-12T09:36:21.303Z,8.17
2023-02-12T09:38:48.747Z,8.19
2023-02-12T09:41:35.258Z,8.19
2023-02-12T09:44:05.600Z,8.20
2023-02-12T09:46:34.814Z,8.02
2023-02-12T09:49:02.288Z,8.17
2023-02-12T09:51:30.654Z,8.23
2023-02-12T09:54:03.842Z,8.25
2023-02-12T09:56:31.835Z,8.28
2023-02-12T09:59:06.224Z,8.27
2023-02-12T10:01:33.878Z,8.25
2023-02-12T10:04:01.725Z,8.34
2023-02-12T10:06:30.879Z,8.40
2023-02-12T10:09:01.344Z,8.39
2023-02-12T10:11:51.842Z,8.46
2023-02-12T10:14:19.233Z,8.39
2023-02-12T10:16:49.452Z,8.44
2023-02-12T10:19:16.878Z,8.53
2023-02-12T10:21:59.700Z,8.57
2023-02-12T10:24:27.077Z,8.55
2023-02-12T10:26:56.875Z,8.57
2023-02-12T10:29:27.139Z,8.52
2023-02-12T10:34:26.873Z,8.61
2023-02-12T10:36:57.423Z,8.62
2023-02-12T10:39:30.482Z,8.67
2023-02-12T10:42:09.043Z,8.65
2023-02-12T10:44:36.484Z,8.67
2023-02-12T10:47:03.872Z,8.78
2023-02-12T10:49:32.663Z,8.77
2023-02-12T10:52:00.118Z,8.80
2023-02-12T10:54:36.354Z,8.77
2023-02-12T10:57:12.419Z,8.82
2023-02-12T10:59:40.636Z,8.84
2023-02-12T11:02:25.330Z,8.83
2023-02-12T11:04:54.095Z,8.82
2023-02-12T11:07:22.190Z,8.86
2023-02-12T11:09:51.053Z,8.87
2023-02-12T11:12:21.374Z,8.87
2023-02-12T11:14:56.063Z,8.98
2023-02-12T11:17:29.767Z,8.87
2023-02-12T11:20:05.360Z,9.02
2023-02-12T11:22:32.955Z,8.95
2023-02-12T11:25:09.757Z,9.00
2023-02-12T11:27:37.112Z,9.00
2023-02-12T11:30:13.965Z,8.94
2023-02-12T11:32:41.559Z,8.96
2023-02-12T11:35:26.991Z,8.88
2023-02-12T11:37:56.170Z,8.99
2023-02-12T11:40:26.262Z,8.99
2023-02-12T11:42:55.652Z,8.98
2023-02-12T11:45:27.562Z,8.98
2023-02-12T11:47:55.199Z,8.94
2023-02-12T11:50:33.574Z,8.96
2023-02-12T11:53:06.962Z,8.91
2023-02-12T11:55:36.711Z,8.90
2023-02-12T11:58:16.056Z,8.94
2023-02-12T12:00:47.249Z,8.98
2023-02-12T12:03:14.743Z,8.91
2023-02-12T12:06:02.394Z,8.88
2023-02-12T12:08:32.838Z,9.00
2023-02-12T12:11:10.775Z,8.90
2023-02-12T12:13:43.853Z,8.93
2023-02-12T12:16:31.938Z,8.94
2023-02-12T12:19:29.153Z,8.95
2023-02-12T12:22:09.499Z,8.89
2023-02-12T12:24:58.846Z,8.85
2023-02-12T12:27:46.742Z,8.78
2023-02-12T12:30:21.123Z,8.91
2023-02-12T12:32:51.460Z,8.84
2023-02-12T12:35:19.883Z,8.90
2023-02-12T12:38:04.298Z,8.93
2023-02-12T12:40:31.714Z,9.02
2023-02-12T12:43:31.574Z,9.05
2023-02-12T12:46:20.027Z,9.07
2023-02-12T12:48:59.461Z,8.99
2023-02-12T12:51:29.690Z,9.14
2023-02-12T12:54:12.159Z,9.13
2023-02-12T12:56:46.324Z,9.06
2023-02-12T12:59:30.212Z,8.99
2023-02-12T13:02:16.643Z,9.11
2023-02-12T13:04:56.368Z,8.98
2023-02-12T13:07:34.264Z,9.10
2023-02-12T13:10:20.318Z,9.10
2023-02-12T13:12:47.706Z,9.13
2023-02-12T13:15:19.003Z,9.17
2023-02-12T13:18:04.927Z,9.16
2023-02-12T13:20:44.670Z,9.21
2023-02-12T13:23:23.198Z,9.30
2023-02-12T13:25:58.046Z,9.32
2023-02-12T13:28:32.287Z,9.32
2023-02-12T13:31:01.005Z,9.19
2023-02-12T13:33:30.059Z,9.16
2023-02-12T13:36:00.185Z,9.13
2023-02-12T13:38:35.963Z,9.21
2023-02-12T13:41:05.890Z,9.13
2023-02-12T13:43:52.262Z,9.13
2023-02-12T13:46:25.508Z,9.16
2023-02-12T13:48:52.917Z,9.22
2023-02-12T13:51:26.164Z,9.25
2023-02-12T13:54:12.077Z,9.27
2023-02-12T13:56:44.514Z,9.33
2023-02-12T13:59:30.784Z,9.32
2023-02-12T14:01:58.830Z,9.27
2023-02-12T14:04:26.253Z,9.23
2023-02-12T14:06:57.621Z,9.24
2023-02-12T14:09:35.268Z,9.37
2023-02-12T14:12:03.195Z,9.37
2023-02-12T14:14:32.349Z,9.24
2023-02-12T14:17:19.778Z,9.27
2023-02-12T14:19:53.378Z,9.22
2023-02-12T14:22:23.536Z,8.99
2023-02-12T14:24:52.264Z,9.26
2023-02-12T14:27:19.712Z,9.12
2023-02-12T14:30:06.036Z,9.12
2023-02-12T14:32:45.795Z,9.25
2023-02-12T14:35:39.295Z,9.23
2023-02-12T14:38:12.768Z,9.18
2023-02-12T14:40:42.733Z,9.08
2023-02-12T14:43:29.077Z,9.11
2023-02-12T14:45:57.850Z,9.01
2023-02-12T14:48:45.830Z,8.97
2023-02-12T14:51:17.848Z,8.95
2023-02-12T14:53:47.752Z,8.90
2023-02-12T14:56:19.608Z,8.91
2023-02-12T14:58:47.483Z,9.03
2023-02-12T15:01:15.119Z,8.97
2023-02-12T15:03:47.190Z,8.99
2023-02-12T15:06:17.458Z,9.00
2023-02-12T15:09:03.069Z,8.99
2023-02-12T15:11:49.527Z,8.98
2023-02-12T15:14:20.480Z,8.96
2023-02-12T15:16:55.425Z,8.99
2023-02-12T15:19:25.882Z,8.93
2023-02-12T15:21:55.131Z,8.94
2023-02-12T15:24:25.864Z,8.94
2023-02-12T15:27:01.105Z,8.91
2023-02-12T15:29:31.107Z,8.89
2023-02-12T15:32:03.473Z,8.93
2023-02-12T15:34:36.154Z,8.93
2023-02-12T15:37:04.616Z,8.93
2023-02-12T15:39:45.456Z,8.89
2023-02-12T15:42:31.433Z,8.71
2023-02-12T15:45:17.182Z,8.75
2023-02-12T15:47:45.752Z,8.71
2023-02-12T15:50:17.679Z,8.70
2023-02-12T15:52:47.183Z,8.68
2023-02-12T15:55:16.702Z,8.56
2023-02-12T15:57:45.429Z,8.53
2023-02-12T16:00:23.536Z,8.55
2023-02-12T16:02:53.008Z,8.51
2023-02-12T16:05:20.820Z,8.49
2023-02-12T16:07:48.805Z,8.48
2023-02-12T16:10:19.877Z,8.43
2023-02-12T16:12:48.255Z,8.44
2023-02-12T16:15:43.572Z,8.43
2023-02-12T16:18:24.439Z,8.35
2023-02-12T16:21:02.814Z,8.25
2023-02-12T16:23:30.519Z,8.17
2023-02-12T16:25:58.325Z,8.21
2023-02-12T16:28:29.410Z,8.22
2023-02-12T16:31:13.634Z,8.16
2023-02-12T16:33:41.042Z,8.19
2023-02-12T16:36:30.375Z,8.24
2023-02-12T16:38:57.932Z,8.19
2023-02-12T16:41:32.428Z,8.24
2023-02-12T16:44:02.580Z,8.27
2023-02-12T16:46:31.253Z,8.30
2023-02-12T16:49:00.595Z,8.33
2023-02-12T16:51:31.025Z,8.31
2023-02-12T16:53:59.874Z,8.34
2023-02-12T16:56:29.422Z,8.31
2023-02-12T16:59:00.925Z,8.28
2023-02-12T17:01:30.508Z,8.28
2023-02-12T17:03:59.261Z,8.27
2023-02-12T17:06:28.466Z,8.37
2023-02-12T17:08:56.351Z,8.29
2023-02-12T17:11:24.307Z,8.30
2023-02-12T17:13:52.653Z,8.27
2023-02-12T17:16:30.320Z,8.26
2023-02-12T17:18:58.974Z,8.19
2023-02-12T17:21:28.382Z,8.18
2023-02-12T17:23:55.991Z,8.10
2023-02-12T17:26:24.317Z,8.08
2023-02-12T17:28:51.793Z,8.03
2023-02-12T17:31:20.638Z,8.10
2023-02-12T17:33:48.208Z,8.08
2023-02-12T17:36:15.756Z,8.14
2023-02-12T17:38:43.160Z,8.20
2023-02-12T17:41:13.364Z,8.25
2023-02-12T17:43:40.811Z,8.24
2023-02-12T17:46:12.781Z,8.25
2023-02-12T17:48:40.440Z,8.21
2023-02-12T17:51:08.170Z,8.12
2023-02-12T17:53:35.636Z,8.14
2023-02-12T17:56:03.133Z,8.16
2023-02-12T17:58:31.003Z,8.18
2023-02-12T18:00:58.908Z,8.27
2023-02-12T18:03:26.681Z,8.28
2023-02-12T18:05:54.715Z,8.32
2023-02-12T18:08:22.154Z,8.29
2023-02-12T18:10:49.649Z,8.20
2023-02-12T18:13:17.134Z,8.19
2023-02-12T18:15:44.557Z,8.17
2023-02-12T18:18:11.971Z,8.10
2023-02-12T18:20:41.104Z,8.10
2023-02-12T18:23:09.419Z,8.10
2023-02-12T18:25:40.816Z,8.11
2023-02-12T18:28:08.368Z,8.15
2023-02-12T18:30:36.680Z,8.13
2023-02-12T18:33:04.172Z,8.13
2023-02-12T18:35:31.623Z,8.10
2023-02-12T18:37:59.296Z,8.09
2023-02-12T18:40:26.973Z,8.09
2023-02-12T18:42:54.555Z,8.08
2023-02-12T18:45:22.016Z,8.05
2023-02-12T18:47:49.436Z,8.07
2023-02-12T18:50:17.064Z,8.05
2023-02-12T18:52:44.556Z,8.01
2023-02-12T18:55:12.047Z,7.96
2023-02-12T18:57:39.474Z,7.99
2023-02-12T19:00:07.285Z,7.92
2023-02-12T19:02:34.684Z,7.86
2023-02-12T19:05:02.094Z,7.92
2023-02-12T19:07:29.509Z,7.94
2023-02-12T19:09:56.946Z,7.80
2023-02-12T19:12:25.984Z,7.73
2023-02-12T19:14:53.390Z,7.77
2023-02-12T19:17:20.866Z,7.77
2023-02-12T19:19:50.292Z,7.79
2023-02-12T19:22:18.212Z,7.76
2023-02-12T19:24:47.184Z,7.72
2023-02-12T19:27:14.923Z,7.81
2023-02-12T19:29:42.427Z,7.72
2023-02-12T19:32:10.104Z,7.74
2023-02-12T19:34:37.564Z,7.67
2023-02-12T19:37:04.981Z,7.68
2023-02-12T19:39:32.500Z,7.69
2023-02-12T19:42:01.645Z,7.71
2023-02-12T19:44:29.102Z,7.70
2023-02-12T19:46:56.854Z,7.70
2023-02-12T19:49:26.109Z,7.69
2023-02-12T19:51:53.831Z,7.65
2023-02-12T19:54:22.517Z,7.69
2023-02-12T19:56:50.785Z,7.66
2023-02-12T19:59:19.637Z,7.74
2023-02-12T20:01:48.148Z,7.70
2023-02-12T20:04:17.548Z,7.72
2023-02-12T20:06:46.650Z,7.68
2023-02-12T20:09:14.450Z,7.64
2023-02-12T20:11:41.899Z,7.61
2023-02-12T20:14:10.408Z,7.61
2023-02-12T20:16:39.132Z,7.60
2023-02-12T20:19:10.154Z,7.58
2023-02-12T20:21:38.282Z,7.61
2023-02-12T20:24:06.235Z,7.63
2023-02-12T20:26:34.684Z,7.57
2023-02-12T20:29:05.318Z,7.58
2023-02-12T20:31:34.950Z,7.60
2023-02-12T20:34:03.744Z,7.60
2023-02-12T20:36:35.124Z,7.58
2023-02-12T20:39:02.615Z,7.65
2023-02-12T20:41:30.045Z,7.65
2023-02-12T20:44:00.295Z,7.57
2023-02-12T20:46:27.738Z,7.62
2023-02-12T20:49:00.686Z,7.60
2023-02-12T20:51:28.552Z,7.54
2023-02-12T20:53:56.550Z,7.61
2023-02-12T20:56:25.417Z,7.55
2023-02-12T20:58:53.442Z,7.53
2023-02-12T21:01:23.207Z,7.47
2023-02-12T21:03:52.056Z,7.57
2023-02-12T21:06:20.457Z,7.44
2023-02-12T21:08:47.920Z,7.35
2023-02-12T21:11:16.563Z,7.42
2023-02-12T21:13:53.913Z,7.57
2023-02-12T21:16:34.522Z,7.60
2023-02-12T21:19:02.546Z,7.47
2023-02-12T21:21:31.626Z,7.59
2023-02-12T21:23:59.720Z,7.53
2023-02-12T21:26:29.926Z,7.56
2023-02-12T21:28:57.936Z,7.47
2023-02-12T21:31:29.883Z,7.54
2023-02-12T21:33:58.236Z,7.46
2023-02-12T21:36:29.877Z,7.54
2023-02-12T21:38:57.588Z,7.56
2023-02-12T21:41:26.132Z,7.56
2023-02-12T21:43:55.228Z,7.64
2023-02-12T21:46:22.974Z,7.62
2023-02-12T21:48:50.864Z,7.69
2023-02-12T21:51:20.276Z,7.61
2023-02-12T21:53:48.453Z,7.57
2023-02-12T21:56:16.459Z,7.60
2023-02-12T21:58:44.028Z,7.53
2023-02-12T22:01:15.499Z,7.66
2023-02-12T22:03:44.015Z,7.72
2023-02-12T22:06:12.074Z,7.70
2023-02-12T22:08:39.590Z,7.59
2023-02-12T22:11:10.938Z,7.54
2023-02-12T22:13:38.535Z,7.52
2023-02-12T22:16:13.864Z,7.43
2023-02-12T22:18:41.757Z,7.44
2023-02-12T22:21:13.040Z,7.43
2023-02-12T22:23:41.270Z,7.36
2023-02-12T22:26:12.885Z,7.43
2023-02-12T22:28:41.180Z,7.37
2023-02-12T22:31:09.739Z,7.29
2023-02-12T22:33:37.209Z,7.28
2023-02-12T22:36:05.470Z,7.29
2023-02-12T22:38:42.074Z,7.29
2023-02-12T22:41:10.096Z,7.30
2023-02-12T22:43:38.684Z,7.22
2023-02-12T22:46:06.885Z,7.28
2023-02-12T22:48:34.377Z,7.22
2023-02-12T22:51:01.928Z,7.34
2023-02-12T22:53:29.350Z,7.31
2023-02-12T22:55:56.780Z,7.31
2023-02-12T22:58:24.257Z,7.35
2023-02-12T23:00:51.690Z,7.32
2023-02-12T23:03:19.156Z,7.37
2023-02-12T23:05:46.563Z,7.39
2023-02-12T23:08:13.968Z,7.41
2023-02-12T23:10:41.440Z,7.33
2023-02-12T23:13:10.443Z,7.19
2023-02-12T23:15:37.946Z,7.15
2023-02-12T23:18:05.390Z,7.16
2023-02-12T23:20:32.932Z,7.24
2023-02-12T23:23:00.395Z,7.12
2023-02-12T23:25:27.822Z,7.09
2023-02-12T23:27:55.354Z,7.14
2023-02-12T23:30:22.822Z,7.14
2023-02-12T23:32:50.299Z,7.19
2023-02-12T23:35:17.696Z,7.25
2023-02-12T23:37:45.098Z,7.20
2023-02-12T23:40:12.847Z,7.18
2023-02-12T23:42:41.119Z,7.12
2023-02-12T23:45:09.399Z,7.04
2023-02-12T23:47:36.846Z,7.06
2023-02-12T23:50:04.330Z,7.01
2023-02-12T23:52:31.755Z,7.10
2023-02-12T23:54:59.269Z,7.13
2023-02-12T23:57:26.989Z,7.08
2023-02-12T23:59:54.682Z,7.08
